createdAt,value
2023-03-14T00:00:33.246Z,98737.41
2023-03-14T00:03:01.747Z,98729.75
2023-03-14T00:05:29.916Z,98730.56
2023-03-14T00:07:58.049Z,98712.13
2023-03-14T00:10:27.503Z,98708.78
2023-03-14T00:12:55.759Z,98718.88
2023-03-14T00:15:23.992Z,98719.16
2023-03-14T00:17:52.242Z,98718.44
2023-03-14T00:20:20.632Z,98721.78
2023-03-14T00:22:48.888Z,98706.19
2023-03-14T00:25:17.107Z,98710.00
2023-03-14T00:27:46.672Z,98709.69
2023-03-14T00:30:15.365Z,98702.56
2023-03-14T00:32:44.317Z,98689.88
2023-03-14T00:35:12.576Z,98667.25
2023-03-14T00:37:40.750Z,98652.06
2023-03-14T00:40:10.178Z,98645.75
2023-03-14T00:42:38.306Z,98646.69
2023-03-14T00:45:09.884Z,98648.56
2023-03-14T00:47:38.033Z,98642.78
2023-03-14T00:50:07.123Z,98629.13
2023-03-14T00:52:35.356Z,98623.09
2023-03-14T00:55:03.481Z,98627.53
2023-03-14T00:57:31.718Z,98612.47
2023-03-14T00:59:59.861Z,98618.38
2023-03-14T01:02:30.338Z,98636.28
2023-03-14T01:04:58.574Z,98643.09
2023-03-14T01:07:26.732Z,98624.16
2023-03-14T01:09:54.935Z,98624.59
2023-03-14T01:12:23.128Z,98619.56
2023-03-14T01:14:51.230Z,98609.19
2023-03-14T01:17:19.352Z,98602.06
2023-03-14T01:19:48.905Z,98604.25
2023-03-14T01:22:17.258Z,98603.47
2023-03-14T01:24:45.778Z,98612.38
2023-03-14T01:27:14.478Z,98606.28
2023-03-14T01:29:42.649Z,98608.69
2023-03-14T01:32:11.361Z,98605.69
2023-03-14T01:34:39.549Z,98630.28
2023-03-14T01:37:09.221Z,98648.16
2023-03-14T01:39:39.776Z,98675.72
2023-03-14T01:42:08.179Z,98674.66
2023-03-14T01:44:54.133Z,98665.41
2023-03-14T01:47:23.092Z,98656.50
2023-03-14T01:49:55.983Z,98656.22
2023-03-14T01:52:29.835Z,98669.19
2023-03-14T01:55:02.764Z,98658.56
2023-03-14T01:57:34.336Z,98667.91
2023-03-14T02:00:12.327Z,98677.41
2023-03-14T02:02:46.910Z,98682.47
2023-03-14T02:05:20.718Z,98679.69
2023-03-14T02:07:58.418Z,98683.75
2023-03-14T02:10:34.162Z,98680.38
2023-03-14T02:13:05.736Z,98672.16
2023-03-14T02:15:48.299Z,98676.03
2023-03-14T02:18:36.250Z,98662.28
2023-03-14T02:21:32.030Z,98649.69
2023-03-14T02:24:11.418Z,98644.44
2023-03-14T02:27:02.725Z,98649.38
2023-03-14T02:29:33.678Z,98645.72
2023-03-14T02:32:03.913Z,98632.75
2023-03-14T02:34:33.371Z,98623.09
2023-03-14T02:37:03.353Z,98621.13
2023-03-14T02:39:37.620Z,98620.38
2023-03-14T02:42:06.057Z,98606.34
2023-03-14T02:44:36.585Z,98605.16
2023-03-14T02:47:06.331Z,98599.44
2023-03-14T02:49:35.932Z,98598.84
2023-03-14T02:52:06.149Z,98594.75
2023-03-14T02:54:34.270Z,98593.75
2023-03-14T02:57:04.763Z,98594.75
2023-03-14T02:59:32.990Z,98595.00
2023-03-14T03:02:09.615Z,98593.59
2023-03-14T03:04:37.738Z,98577.72
2023-03-14T03:07:05.891Z,98588.09
2023-03-14T03:09:34.064Z,98576.16
2023-03-14T03:12:02.204Z,98574.63
2023-03-14T03:14:31.390Z,98578.72
2023-03-14T03:17:02.987Z,98572.81
2023-03-14T03:19:32.824Z,98557.09
2023-03-14T03:22:00.942Z,98545.28
2023-03-14T03:24:29.588Z,98541.25
2023-03-14T03:26:57.677Z,98534.97
2023-03-14T03:29:27.634Z,98540.28
2023-03-14T03:31:56.349Z,98530.66
2023-03-14T03:34:24.436Z,98513.75
2023-03-14T03:36:58.128Z,98518.06
2023-03-14T03:39:27.568Z,98501.09
2023-03-14T03:41:55.876Z,98500.41
2023-03-14T03:44:24.834Z,98504.06
2023-03-14T03:46:53.642Z,98519.50
2023-03-14T03:49:21.808Z,98520.56
2023-03-14T03:51:50.226Z,98517.38
2023-03-14T03:54:19.687Z,98517.38
2023-03-14T03:56:47.893Z,98528.31
2023-03-14T03:59:16.271Z,98526.03
2023-03-14T04:01:48.206Z,98524.38
2023-03-14T04:04:16.660Z,98522.53
2023-03-14T04:06:45.260Z,98525.88
2023-03-14T04:09:14.470Z,98524.13
2023-03-14T04:12:01.464Z,98520.03
2023-03-14T04:14:38.940Z,98515.41
2023-03-14T04:17:13.638Z,98524.19
2023-03-14T04:19:41.820Z,98525.56
2023-03-14T04:22:10.830Z,98530.84
2023-03-14T04:24:47.940Z,98512.38
2023-03-14T04:27:17.503Z,98507.97
2023-03-14T04:29:47.500Z,98511.69
2023-03-14T04:32:18.718Z,98507.28
2023-03-14T04:34:46.995Z,98508.22
2023-03-14T04:37:15.375Z,98502.59
2023-03-14T04:39:45.905Z,98493.94
2023-03-14T04:42:20.231Z,98485.53
2023-03-14T04:44:50.408Z,98489.19
2023-03-14T04:47:19.818Z,98479.53
2023-03-14T04:49:53.186Z,98472.72
2023-03-14T04:52:21.645Z,98462.88
2023-03-14T04:54:49.741Z,98459.84
2023-03-14T04:57:20.578Z,98467.19
2023-03-14T04:59:49.984Z,98469.09
2023-03-14T05:02:40.659Z,98467.38
2023-03-14T05:05:17.645Z,98466.28
2023-03-14T05:08:14.984Z,98462.88
2023-03-14T05:10:54.575Z,98454.56
2023-03-14T05:13:40.402Z,98448.25
2023-03-14T05:16:27.204Z,98445.59
2023-03-14T05:19:23.138Z,98448.38
2023-03-14T05:22:12.961Z,98438.41
2023-03-14T05:25:00.053Z,98428.16
2023-03-14T05:27:46.774Z,98426.88
2023-03-14T05:30:31.952Z,98431.78
2023-03-14T05:33:23.118Z,98423.06
2023-03-14T05:36:11.560Z,98432.00
2023-03-14T05:39:00.584Z,98428.84
2023-03-14T05:41:54.951Z,98443.94
2023-03-14T05:44:33.982Z,98423.53
2023-03-14T05:47:22.240Z,98427.84
2023-03-14T05:50:02.075Z,98431.88
2023-03-14T05:52:38.435Z,98436.50
2023-03-14T05:55:27.216Z,98427.94
2023-03-14T05:58:25.134Z,98431.41
2023-03-14T06:00:59.368Z,98437.94
2023-03-14T06:03:43.668Z,98446.50
2023-03-14T06:06:12.040Z,98462.09
2023-03-14T06:08:40.506Z,98459.78
2023-03-14T06:11:11.163Z,98457.56
2023-03-14T06:13:39.407Z,98445.03
2023-03-14T06:16:08.250Z,98449.84
2023-03-14T06:18:36.526Z,98441.69
2023-03-14T06:21:08.338Z,98442.09
2023-03-14T06:23:37.481Z,98450.66
2023-03-14T06:26:07.458Z,98444.22
2023-03-14T06:28:35.747Z,98447.09
2023-03-14T06:31:06.964Z,98447.66
2023-03-14T06:33:42.660Z,98469.31
2023-03-14T06:36:13.199Z,98466.19
2023-03-14T06:38:44.643Z,98473.47
2023-03-14T06:41:12.827Z,98473.69
2023-03-14T06:43:44.145Z,98478.34
2023-03-14T06:46:13.463Z,98463.50
2023-03-14T06:48:43.837Z,98457.84
2023-03-14T06:51:14.489Z,98465.47
2023-03-14T06:53:42.893Z,98460.44
2023-03-14T06:56:11.287Z,98469.50
2023-03-14T06:58:39.513Z,98485.78
2023-03-14T07:01:22.194Z,98485.16
2023-03-14T07:03:50.714Z,98484.03
2023-03-14T07:06:20.440Z,98487.34
2023-03-14T07:08:50.292Z,98479.84
2023-03-14T07:11:20.089Z,98496.84
2023-03-14T07:13:48.399Z,98490.00
2023-03-14T07:16:16.891Z,98493.53
2023-03-14T07:18:45.109Z,98501.81
2023-03-14T07:21:14.068Z,98508.72
2023-03-14T07:23:43.518Z,98513.69
2023-03-14T07:26:11.692Z,98510.06
2023-03-14T07:28:45.448Z,98506.56
2023-03-14T07:31:18.201Z,98506.75
2023-03-14T07:33:46.493Z,98503.00
2023-03-14T07:36:14.676Z,98508.03
2023-03-14T07:38:46.935Z,98511.16
2023-03-14T07:41:15.459Z,98510.78
2023-03-14T07:43:51.525Z,98527.88
2023-03-14T07:46:19.851Z,98508.91
2023-03-14T07:48:47.995Z,98513.13
2023-03-14T07:51:16.147Z,98513.63
2023-03-14T07:53:45.044Z,98518.97
2023-03-14T07:56:14.521Z,98526.34
2023-03-14T07:58:42.641Z,98520.69
2023-03-14T08:01:11.112Z,98515.72
2023-03-14T08:03:39.305Z,98529.19
2023-03-14T08:06:08.174Z,98516.72
2023-03-14T08:08:36.314Z,98525.72
2023-03-14T08:11:05.434Z,98529.41
2023-03-14T08:13:35.137Z,98529.56
2023-03-14T08:16:03.428Z,98517.25
2023-03-14T08:18:31.941Z,98524.09
2023-03-14T08:21:00.358Z,98535.19
2023-03-14T08:23:28.489Z,98523.47
2023-03-14T08:25:56.629Z,98521.50
2023-03-14T08:28:24.761Z,98514.50
2023-03-14T08:30:56.821Z,98523.16
2023-03-14T08:33:25.531Z,98509.38
2023-03-14T08:35:54.167Z,98504.94
2023-03-14T08:38:22.659Z,98503.66
2023-03-14T08:40:51.216Z,98509.28
2023-03-14T08:43:19.341Z,98487.19
2023-03-14T08:45:47.472Z,98501.81
2023-03-14T08:48:17.088Z,98502.53
2023-03-14T08:50:45.242Z,98507.03
2023-03-14T08:53:13.408Z,98501.34
2023-03-14T08:55:41.851Z,98512.63
2023-03-14T08:58:10.229Z,98508.31
2023-03-14T09:00:38.407Z,98520.63
2023-03-14T09:03:06.602Z,98511.72
2023-03-14T09:05:36.342Z,98502.41
2023-03-14T09:08:04.473Z,98507.38
2023-03-14T09:10:32.608Z,98505.53
2023-03-14T09:13:01.200Z,98504.91
2023-03-14T09:15:29.341Z,98506.38
2023-03-14T09:17:57.454Z,98524.69
2023-03-14T09:20:25.651Z,98507.72
2023-03-14T09:22:55.112Z,98513.84
2023-03-14T09:25:23.306Z,98513.69
2023-03-14T09:27:51.436Z,98507.38
2023-03-14T09:30:19.546Z,98516.69
2023-03-14T09:32:47.757Z,98521.38
2023-03-14T09:35:16.342Z,98507.34
2023-03-14T09:37:44.634Z,98504.38
2023-03-14T09:40:17.768Z,98504.06
2023-03-14T09:42:46.223Z,98510.38
2023-03-14T09:45:19.219Z,98503.75
2023-03-14T09:47:58.643Z,98501.00
2023-03-14T09:50:32.712Z,98513.22
2023-03-14T09:53:05.165Z,98527.69
2023-03-14T09:55:36.692Z,98521.69
2023-03-14T09:58:11.767Z,98504.13
2023-03-14T10:00:40.437Z,98507.97
2023-03-14T10:03:23.873Z,98503.75
2023-03-14T10:05:52.461Z,98488.81
2023-03-14T10:08:20.727Z,98481.75
2023-03-14T10:10:50.350Z,98488.59
2023-03-14T10:13:22.643Z,98490.97
2023-03-14T10:15:54.886Z,98480.81
2023-03-14T10:18:26.422Z,98498.72
2023-03-14T10:21:05.060Z,98490.84
2023-03-14T10:23:35.571Z,98496.44
2023-03-14T10:26:15.784Z,98490.84
2023-03-14T10:28:46.457Z,98499.75
2023-03-14T10:31:15.698Z,98510.25
2023-03-14T10:33:43.860Z,98516.34
2023-03-14T10:36:22.989Z,98512.34
2023-03-14T10:38:51.211Z,98511.38
2023-03-14T10:41:26.355Z,98504.66
2023-03-14T10:43:58.300Z,98513.97
2023-03-14T10:46:28.879Z,98512.84
2023-03-14T10:49:29.206Z,98507.81
2023-03-14T10:51:57.361Z,98510.84
2023-03-14T10:54:25.917Z,98520.53
2023-03-14T10:57:02.952Z,98535.84
2023-03-14T10:59:37.539Z,98515.88
2023-03-14T11:02:21.757Z,98534.69
2023-03-14T11:05:05.355Z,98530.22
2023-03-14T11:07:40.747Z,98527.69
2023-03-14T11:10:21.263Z,98536.69
2023-03-14T11:13:07.906Z,98536.38
2023-03-14T11:15:41.123Z,98533.69
2023-03-14T11:18:29.182Z,98544.03
2023-03-14T11:21:04.817Z,98544.06
2023-03-14T11:23:40.157Z,98543.06
2023-03-14T11:26:22.735Z,98539.41
2023-03-14T11:28:59.254Z,98542.72
2023-03-14T11:31:29.683Z,98531.72
2023-03-14T11:34:03.844Z,98534.38
2023-03-14T11:36:38.292Z,98533.06
2023-03-14T11:39:13.820Z,98535.22
2023-03-14T11:41:45.002Z,98535.69
2023-03-14T11:44:20.774Z,98534.06
2023-03-14T11:46:53.564Z,98542.38
2023-03-14T11:49:32.266Z,98531.72
2023-03-14T11:52:05.046Z,98544.69
2023-03-14T11:54:40.149Z,98529.03
2023-03-14T11:57:13.966Z,98535.69
2023-03-14T11:59:51.891Z,98532.03
2023-03-14T12:02:26.727Z,98531.03
2023-03-14T12:05:18.658Z,98524.34
2023-03-14T12:08:05.145Z,98530.38
2023-03-14T12:10:40.143Z,98525.41
2023-03-14T12:13:11.457Z,98522.03
2023-03-14T12:15:44.689Z,98528.41
2023-03-14T12:18:22.006Z,98510.25
2023-03-14T12:20:55.585Z,98508.06
2023-03-14T12:23:24.090Z,98512.38
2023-03-14T12:26:09.761Z,98514.41
2023-03-14T12:28:37.958Z,98512.06
2023-03-14T12:31:43.590Z,98509.06
2023-03-14T12:34:30.471Z,98512.25
2023-03-14T12:37:07.792Z,98515.72
2023-03-14T12:39:45.047Z,98517.41
2023-03-14T12:42:14.981Z,98507.06
2023-03-14T12:44:46.487Z,98513.03
2023-03-14T12:47:54.610Z,98502.03
2023-03-14T12:50:27.949Z,98505.91
2023-03-14T12:53:12.156Z,98510.72
2023-03-14T12:55:51.002Z,98504.72
2023-03-14T12:58:30.791Z,98494.75
2023-03-14T13:01:02.882Z,98491.25
2023-03-14T13:03:44.856Z,98492.38
2023-03-14T13:06:13.655Z,98479.66
2023-03-14T13:08:44.377Z,98478.31
2023-03-14T13:11:16.939Z,98457.19
2023-03-14T13:13:49.627Z,98469.03
2023-03-14T13:16:20.470Z,98462.50
2023-03-14T13:18:52.556Z,98464.50
2023-03-14T13:21:22.626Z,98453.31
2023-03-14T13:23:59.714Z,98464.09
2023-03-14T13:26:37.541Z,98456.81
2023-03-14T13:29:18.189Z,98471.03
2023-03-14T13:31:47.518Z,98467.50
2023-03-14T13:34:17.351Z,98485.56
2023-03-14T13:36:46.111Z,98476.59
2023-03-14T13:39:20.290Z,98483.72
2023-03-14T13:41:49.473Z,98480.38
2023-03-14T13:44:20.398Z,98471.00
2023-03-14T13:46:48.553Z,98463.50
2023-03-14T13:49:25.676Z,98467.00
2023-03-14T13:51:53.911Z,98469.81
2023-03-14T13:54:24.093Z,98460.03
2023-03-14T13:57:01.503Z,98462.41
2023-03-14T13:59:31.388Z,98448.09
2023-03-14T14:02:01.582Z,98453.72
2023-03-14T14:04:34.471Z,98450.09
2023-03-14T14:07:08.243Z,98445.38
2023-03-14T14:09:40.377Z,98444.44
2023-03-14T14:12:16.963Z,98461.06
2023-03-14T14:14:49.352Z,98465.75
2023-03-14T14:17:20.681Z,98476.44
2023-03-14T14:19:50.998Z,98482.75
2023-03-14T14:22:20.069Z,98483.38
2023-03-14T14:24:48.751Z,98499.38
2023-03-14T14:27:19.899Z,98489.06
2023-03-14T14:29:59.672Z,98484.88
2023-03-14T14:32:27.962Z,98475.38
2023-03-14T14:35:04.219Z,98479.72
2023-03-14T14:37:34.638Z,98477.03
2023-03-14T14:40:11.784Z,98477.03
2023-03-14T14:42:42.935Z,98480.00
2023-03-14T14:45:16.672Z,98483.34
2023-03-14T14:47:52.843Z,98472.69
2023-03-14T14:50:33.470Z,98475.53
2023-03-14T14:53:03.356Z,98466.41
2023-03-14T14:55:34.819Z,98454.59
2023-03-14T14:58:14.416Z,98455.44
2023-03-14T15:00:43.516Z,98452.13
2023-03-14T15:03:15.565Z,98455.41
2023-03-14T15:05:45.366Z,98447.44
2023-03-14T15:08:13.540Z,98431.09
2023-03-14T15:10:41.926Z,98427.44
2023-03-14T15:13:13.205Z,98434.09
2023-03-14T15:15:43.254Z,98415.81
2023-03-14T15:18:16.534Z,98418.09
2023-03-14T15:20:46.476Z,98420.72
2023-03-14T15:23:16.417Z,98419.06
2023-03-14T15:25:55.463Z,98418.97
2023-03-14T15:28:27.233Z,98414.13
2023-03-14T15:30:57.433Z,98419.47
2023-03-14T15:33:26.763Z,98426.97
2023-03-14T15:35:58.033Z,98428.81
2023-03-14T15:38:26.350Z,98435.81
2023-03-14T15:40:55.472Z,98429.50
2023-03-14T15:43:23.685Z,98443.75
2023-03-14T15:45:52.234Z,98446.72
2023-03-14T15:48:23.019Z,98450.03
2023-03-14T15:50:51.303Z,98458.03
2023-03-14T15:53:20.970Z,98456.19
2023-03-14T15:55:49.117Z,98458.84
2023-03-14T15:58:21.572Z,98455.47
2023-03-14T16:00:50.617Z,98460.16
2023-03-14T16:03:18.900Z,98459.34
2023-03-14T16:05:47.041Z,98454.66
2023-03-14T16:08:15.168Z,98505.78
2023-03-14T16:10:45.133Z,98611.25
2023-03-14T16:13:14.091Z,98636.09
2023-03-14T16:15:42.292Z,98671.88
2023-03-14T16:18:21.012Z,98685.09
2023-03-14T16:20:57.587Z,98715.16
2023-03-14T16:23:26.373Z,98739.19
2023-03-14T16:25:56.549Z,98767.50
2023-03-14T16:28:25.237Z,98794.81
2023-03-14T16:30:53.532Z,98812.59
2023-03-14T16:33:24.497Z,98810.31
2023-03-14T16:35:57.179Z,98820.53
2023-03-14T16:38:25.871Z,98851.47
2023-03-14T16:41:00.424Z,98864.69
2023-03-14T16:43:29.133Z,98885.50
2023-03-14T16:45:59.630Z,98913.75
2023-03-14T16:48:28.533Z,98947.72
2023-03-14T16:50:57.316Z,98969.19
2023-03-14T16:53:28.782Z,99003.44
2023-03-14T16:55:59.473Z,99014.13
2023-03-14T16:58:28.284Z,99034.94
2023-03-14T17:00:57.765Z,99053.38
2023-03-14T17:03:27.785Z,99070.78
2023-03-14T17:05:56.150Z,99089.00
2023-03-14T17:08:24.299Z,99100.47
2023-03-14T17:10:52.768Z,99110.78
2023-03-14T17:13:25.690Z,99119.59
2023-03-14T17:15:55.588Z,99136.06
2023-03-14T17:18:24.293Z,99150.97
2023-03-14T17:20:52.805Z,99173.91
2023-03-14T17:23:21.474Z,99192.03
2023-03-14T17:25:51.231Z,99215.75
2023-03-14T17:28:20.216Z,99219.44
2023-03-14T17:30:50.242Z,99245.91
2023-03-14T17:33:18.500Z,99257.16
2023-03-14T17:35:46.757Z,99271.00
2023-03-14T17:38:14.904Z,99275.44
2023-03-14T17:40:47.613Z,99287.81
2023-03-14T17:43:16.404Z,99306.94
2023-03-14T17:45:44.732Z,99304.47
2023-03-14T17:48:14.215Z,99313.66
2023-03-14T17:50:42.430Z,99314.56
2023-03-14T17:53:10.564Z,99326.22
2023-03-14T17:55:38.703Z,99334.00
2023-03-14T17:58:06.811Z,99345.44
2023-03-14T18:00:34.944Z,99368.03
2023-03-14T18:03:03.316Z,99373.97
2023-03-14T18:05:32.850Z,99378.47
2023-03-14T18:08:00.981Z,99387.69
2023-03-14T18:10:29.139Z,99402.09
2023-03-14T18:12:57.295Z,99408.75
2023-03-14T18:15:25.463Z,99415.38
2023-03-14T18:17:53.614Z,99426.84
2023-03-14T18:20:21.964Z,99439.22
2023-03-14T18:22:51.406Z,99460.19
2023-03-14T18:25:19.698Z,99458.00
2023-03-14T18:27:47.874Z,99472.78
2023-03-14T18:30:17.057Z,99477.69
2023-03-14T18:32:45.200Z,99486.34
2023-03-14T18:35:13.408Z,99491.16
2023-03-14T18:37:41.846Z,99491.94
2023-03-14T18:40:16.933Z,99488.53
2023-03-14T18:42:45.129Z,99503.81
2023-03-14T18:45:14.373Z,99513.81
2023-03-14T18:47:42.594Z,99514.22
2023-03-14T18:50:12.205Z,99516.91
2023-03-14T18:52:40.835Z,99525.97
2023-03-14T18:55:11.235Z,99529.16
2023-03-14T18:57:39.484Z,99544.94
2023-03-14T19:00:10.923Z,99545.16
2023-03-14T19:02:39.497Z,99545.63
2023-03-14T19:05:09.248Z,99552.63
2023-03-14T19:07:37.399Z,99556.81
2023-03-14T19:10:06.292Z,99572.09
2023-03-14T19:12:35.791Z,99585.41
2023-03-14T19:15:04.043Z,99590.06
2023-03-14T19:17:32.241Z,99600.41
2023-03-14T19:20:00.387Z,99605.06
2023-03-14T19:22:28.516Z,99625.81
2023-03-14T19:24:57.165Z,99623.56
2023-03-14T19:27:25.336Z,99621.22
2023-03-14T19:29:54.878Z,99631.63
2023-03-14T19:32:23.120Z,99635.09
2023-03-14T19:34:51.275Z,99652.34
2023-03-14T19:37:19.431Z,99658.16
2023-03-14T19:39:48.016Z,99660.06
2023-03-14T19:42:16.166Z,99657.44
2023-03-14T19:44:44.331Z,99663.53
2023-03-14T19:47:14.206Z,99667.81
2023-03-14T19:49:42.416Z,99675.13
2023-03-14T19:52:10.876Z,99683.78
2023-03-14T19:54:41.187Z,99692.41
2023-03-14T19:57:09.648Z,99701.03
2023-03-14T19:59:37.953Z,99711.53
2023-03-14T20:02:06.302Z,99713.59
2023-03-14T20:04:36.069Z,99719.44
2023-03-14T20:07:04.828Z,99730.44
2023-03-14T20:09:33.135Z,99745.75
2023-03-14T20:12:01.582Z,99741.09
2023-03-14T20:14:29.719Z,99740.41
2023-03-14T20:16:58.231Z,99753.38
2023-03-14T20:19:26.711Z,99767.56
2023-03-14T20:21:56.279Z,99774.84
2023-03-14T20:24:24.426Z,99771.16
2023-03-14T20:26:52.580Z,99784.56
2023-03-14T20:29:20.741Z,99780.66
2023-03-14T20:31:48.860Z,99797.66
2023-03-14T20:34:16.992Z,99785.47
2023-03-14T20:36:45.124Z,99792.78
2023-03-14T20:39:15.337Z,99779.13
2023-03-14T20:41:43.469Z,99795.09
2023-03-14T20:44:13.389Z,99799.97
2023-03-14T20:46:41.744Z,99802.41
2023-03-14T20:49:10.331Z,99815.84
2023-03-14T20:51:38.613Z,99808.50
2023-03-14T20:54:08.892Z,99815.44
2023-03-14T20:56:40.633Z,99826.97
2023-03-14T20:59:08.791Z,99831.00
2023-03-14T21:01:37.578Z,99829.19
2023-03-14T21:04:06.457Z,99833.34
2023-03-14T21:06:34.657Z,99830.78
2023-03-14T21:09:05.522Z,99832.84
2023-03-14T21:11:36.352Z,99835.06
2023-03-14T21:14:06.100Z,99841.28
2023-03-14T21:16:34.391Z,99830.81
2023-03-14T21:19:02.636Z,99839.59
2023-03-14T21:21:30.871Z,99833.78
2023-03-14T21:23:59.126Z,99840.84
2023-03-14T21:26:27.339Z,99838.88
2023-03-14T21:28:55.502Z,99846.13
2023-03-14T21:31:26.895Z,99852.28
2023-03-14T21:33:56.147Z,99850.88
2023-03-14T21:36:24.455Z,99861.13
2023-03-14T21:38:52.963Z,99850.09
2023-03-14T21:41:21.108Z,99861.78
2023-03-14T21:43:49.224Z,99870.53
2023-03-14T21:46:17.455Z,99867.81
2023-03-14T21:48:47.561Z,99880.75
2023-03-14T21:51:15.951Z,99886.38
2023-03-14T21:53:45.680Z,99886.50
2023-03-14T21:56:14.378Z,99890.75
2023-03-14T21:58:42.567Z,99895.38
2023-03-14T22:01:11.713Z,99905.25
2023-03-14T22:03:39.861Z,99912.91
2023-03-14T22:06:09.493Z,99923.75
2023-03-14T22:08:37.659Z,99920.09
2023-03-14T22:11:07.875Z,99929.03
2023-03-14T22:13:36.019Z,99930.56
2023-03-14T22:16:04.295Z,99926.13
2023-03-14T22:18:32.838Z,99938.66
2023-03-14T22:21:01.085Z,99934.09
2023-03-14T22:23:30.545Z,99944.44
2023-03-14T22:25:58.687Z,99950.75
2023-03-14T22:28:26.890Z,99942.25
2023-03-14T22:30:54.994Z,99946.72
2023-03-14T22:33:23.280Z,99946.72
2023-03-14T22:35:53.301Z,99949.53
2023-03-14T22:38:21.826Z,99953.91
2023-03-14T22:40:51.281Z,99962.66
2023-03-14T22:43:19.619Z,99960.75
2023-03-14T22:45:48.163Z,99968.75
2023-03-14T22:48:16.317Z,99979.56
2023-03-14T22:50:44.463Z,99985.47
2023-03-14T22:53:12.802Z,99989.97
2023-03-14T22:55:41.344Z,99995.78
2023-03-14T22:58:11.339Z,100003.50
2023-03-14T23:00:39.897Z,99999.28
2023-03-14T23:03:08.184Z,100011.81
2023-03-14T23:05:36.352Z,100020.47
2023-03-14T23:08:04.500Z,100021.53
2023-03-14T23:10:32.996Z,100019.00
2023-03-14T23:13:01.319Z,100016.94
2023-03-14T23:15:30.857Z,100024.44
2023-03-14T23:17:59.167Z,100019.06
2023-03-14T23:20:27.966Z,100034.78
2023-03-14T23:22:56.110Z,100031.03
2023-03-14T23:25:24.285Z,100036.16
2023-03-14T23:27:54.208Z,100035.34
2023-03-14T23:30:22.531Z,100045.69
2023-03-14T23:32:53.196Z,100047.06
2023-03-14T23:35:21.581Z,100057.31
2023-03-14T23:37:50.160Z,100055.78
2023-03-14T23:40:18.936Z,100064.47
2023-03-14T23:42:49.667Z,100067.81
2023-03-14T23:45:17.932Z,100069.56
2023-03-14T23:47:46.068Z,100069.56
2023-03-14T23:50:15.644Z,100076.84
2023-03-14T23:52:43.919Z,100077.47
2023-03-14T23:55:12.229Z,100086.19
2023-03-14T23:57:40.501Z,100089.88
